Time;durP1;ratioP1;P1;durP2;ratioP2;P2;SDS_P1;SDS_P2;PMS_P1;PMS_P2;Temp;Humidity;BMP_temperature;BMP_pressure;BME280_temperature;BME280_humidity;BME280_pressure;Samples;Min_cycle;Max_cycle;Signal;HPM_P1;HPM_P2
2023/12/31 00:01:57;;;;;;;7.47;4.83;;;5.70;99.90;;;;;;5072772;28;20169;-68
2023/12/31 00:04:23;;;;;;;5.50;5.00;;;5.70;99.90;;;;;;5096688;22;20652;-68
2023/12/31 00:06:48;;;;;;;4.83;3.90;;;5.70;99.90;;;;;;5087562;28;20633;-66
2023/12/31 00:09:14;;;;;;;5.50;4.33;;;5.70;99.90;;;;;;5092603;28;20207;-66
2023/12/31 00:11:39;;;;;;;4.90;4.40;;;5.70;99.90;;;;;;5092758;28;20200;-66
2023/12/31 00:14:05;;;;;;;5.90;5.17;;;5.60;99.90;;;;;;5092542;28;20188;-66
2023/12/31 00:16:32;;;;;;;6.67;5.43;;;5.60;99.90;;;;;;5092305;28;20662;-65
2023/12/31 00:18:57;;;;;;;6.13;5.40;;;5.60;99.90;;;;;;5092576;28;20169;-66
2023/12/31 00:21:23;;;;;;;5.03;4.47;;;5.50;99.90;;;;;;5092505;28;20483;-65
2023/12/31 00:23:48;;;;;;;7.13;5.40;;;5.50;99.90;;;;;;5092379;28;20192;-66
2023/12/31 00:26:14;;;;;;;5.93;4.33;;;5.50;99.90;;;;;;5092346;28;20187;-65
2023/12/31 00:28:39;;;;;;;7.03;5.90;;;5.50;99.90;;;;;;5092215;28;20208;-66
2023/12/31 00:31:05;;;;;;;5.30;4.50;;;5.40;99.90;;;;;;5092358;28;20168;-66
2023/12/31 00:33:31;;;;;;;5.00;4.50;;;5.40;99.90;;;;;;5092347;28;20653;-66
2023/12/31 00:35:56;;;;;;;7.70;5.33;;;5.40;99.90;;;;;;5092301;28;20250;-65
2023/12/31 00:38:22;;;;;;;7.63;5.00;;;5.40;99.90;;;;;;5092003;28;20233;-66
2023/12/31 00:40:47;;;;;;;5.50;4.73;;;5.40;99.90;;;;;;5092295;28;20217;-66
2023/12/31 00:43:13;;;;;;;6.30;5.30;;;5.40;99.90;;;;;;5092121;28;20188;-66
2023/12/31 00:45:38;;;;;;;6.37;5.63;;;5.30;99.90;;;;;;5092221;28;20585;-66
2023/12/31 00:48:04;;;;;;;6.47;4.90;;;5.30;99.90;;;;;;5091799;28;20206;-66
2023/12/31 00:50:29;;;;;;;4.87;4.33;;;5.40;99.90;;;;;;5092125;28;20251;-66
2023/12/31 00:52:55;;;;;;;5.20;4.70;;;5.40;99.90;;;;;;5091994;28;20188;-65
2023/12/31 00:55:20;;;;;;;9.17;5.20;;;5.30;99.90;;;;;;5092170;28;20511;-66
2023/12/31 00:57:46;;;;;;;5.87;5.23;;;5.30;99.90;;;;;;5091838;28;20176;-66
2023/12/31 01:00:13;;;;;;;7.53;5.83;;;5.40;99.90;;;;;;5092081;28;20647;-65
2023/12/31 01:02:38;;;;;;;7.33;5.53;;;5.30;99.90;;;;;;5091975;28;20179;-66
2023/12/31 01:05:04;;;;;;;9.13;6.07;;;5.30;99.90;;;;;;5091942;28;20429;-65
2023/12/31 01:07:29;;;;;;;7.53;5.40;;;5.20;99.90;;;;;;5091605;28;20188;-66
2023/12/31 01:09:55;;;;;;;6.70;5.80;;;5.20;99.90;;;;;;5092421;28;20172;-66
2023/12/31 01:12:20;;;;;;;8.57;5.60;;;5.20;99.90;;;;;;5096066;28;20271;-65
2023/12/31 01:14:46;;;;;;;5.80;4.67;;;5.20;99.90;;;;;;5096068;28;20188;-66
2023/12/31 01:17:11;;;;;;;10.30;5.03;;;5.10;99.90;;;;;;5095711;28;20536;-65
2023/12/31 01:19:37;;;;;;;8.33;5.13;;;5.10;99.90;;;;;;5096034;28;20645;-65
2023/12/31 01:22:03;;;;;;;6.73;5.07;;;5.10;99.90;;;;;;5095951;28;20176;-66
2023/12/31 01:24:28;;;;;;;5.83;5.20;;;5.10;99.90;;;;;;5095779;28;20729;-66
2023/12/31 01:26:54;;;;;;;5.20;4.70;;;5.00;99.90;;;;;;5095496;28;20164;-65
2023/12/31 01:29:19;;;;;;;5.80;4.90;;;5.00;99.90;;;;;;5095826;28;20199;-65
2023/12/31 01:31:45;;;;;;;5.80;5.20;;;5.00;99.90;;;;;;5095749;28;20278;-66
2023/12/31 01:34:10;;;;;;;6.77;5.40;;;5.10;99.90;;;;;;5095595;28;20237;-65
2023/12/31 01:36:36;;;;;;;9.13;5.53;;;5.10;99.90;;;;;;5095215;28;20259;-65
2023/12/31 01:39:01;;;;;;;5.43;4.90;;;5.10;99.90;;;;;;5095590;28;20231;-65
2023/12/31 01:41:27;;;;;;;7.10;6.27;;;5.10;99.90;;;;;;5095533;28;20955;-66
2023/12/31 01:44:02;;;;;;;7.00;5.50;;;5.10;99.90;;;;;;5095398;28;20188;-66
2023/12/31 01:46:30;;;;;;;7.60;5.43;;;5.00;99.90;;;;;;5095268;28;20475;-65
2023/12/31 01:48:56;;;;;;;6.00;4.90;;;5.00;99.90;;;;;;5095341;28;20441;-66
2023/12/31 01:51:23;;;;;;;6.33;5.43;;;4.90;99.90;;;;;;5095386;28;20450;-66
2023/12/31 01:53:49;;;;;;;6.43;5.57;;;4.90;99.90;;;;;;5095179;28;20441;-66
2023/12/31 01:56:15;;;;;;;4.80;4.40;;;4.90;99.90;;;;;;5095135;28;20439;-65
2023/12/31 01:58:42;;;;;;;7.37;6.60;;;4.90;99.90;;;;;;5095074;28;20826;-65
2023/12/31 02:01:08;;;;;;;7.23;5.17;;;4.90;99.90;;;;;;5095184;28;20199;-65
2023/12/31 02:03:34;;;;;;;5.70;4.83;;;4.90;99.90;;;;;;5094899;28;20460;-65
2023/12/31 02:06:00;;;;;;;7.13;5.10;;;4.90;99.90;;;;;;5095066;28;20406;-66
2023/12/31 02:08:25;;;;;;;5.33;4.83;;;4.90;99.90;;;;;;5093412;28;20196;-65
2023/12/31 02:10:52;;;;;;;5.93;4.80;;;4.80;99.90;;;;;;5095093;28;20471;-66
2023/12/31 02:13:18;;;;;;;5.37;4.87;;;4.90;99.90;;;;;;5094891;28;20188;-65
2023/12/31 02:15:43;;;;;;;5.50;5.00;;;4.90;99.90;;;;;;5094888;28;20992;-66
2023/12/31 02:18:09;;;;;;;5.93;5.27;;;4.90;99.90;;;;;;5093313;28;20414;-66
2023/12/31 02:20:34;;;;;;;6.73;4.57;;;4.90;99.90;;;;;;5094819;28;20179;-66
2023/12/31 02:23:00;;;;;;;6.00;4.83;;;4.90;99.90;;;;;;5093967;28;20188;-65
2023/12/31 02:25:29;;;;;;;5.63;4.30;;;4.90;99.90;;;;;;5094700;28;20261;-66
2023/12/31 02:27:55;;;;;;;5.27;4.77;;;4.90;99.90;;;;;;5094321;28;20200;-66
2023/12/31 02:30:22;;;;;;;5.30;4.77;;;4.90;99.90;;;;;;5094612;28;20966;-65
2023/12/31 02:32:48;;;;;;;6.37;5.23;;;4.90;99.90;;;;;;5094478;28;20638;-66
2023/12/31 02:35:14;;;;;;;6.30;5.23;;;4.90;99.90;;;;;;5093327;28;20411;-67
2023/12/31 02:37:39;;;;;;;5.17;4.67;;;5.00;99.90;;;;;;5094130;28;20187;-66
2023/12/31 02:40:05;;;;;;;5.30;4.43;;;5.00;99.90;;;;;;5094356;28;20201;-66
2023/12/31 02:42:31;;;;;;;4.50;4.10;;;5.10;99.90;;;;;;5094374;28;20197;-66
2023/12/31 02:44:57;;;;;;;5.80;5.20;;;5.20;99.90;;;;;;5094254;28;20972;-65
2023/12/31 02:47:22;;;;;;;5.23;4.73;;;5.20;99.90;;;;;;5092512;28;20211;-66
2023/12/31 02:49:48;;;;;;;5.63;5.13;;;5.30;99.90;;;;;;5094363;28;20262;-65
2023/12/31 02:52:15;;;;;;;5.93;5.43;;;5.30;99.90;;;;;;5094115;28;20523;-66
2023/12/31 02:54:40;;;;;;;5.70;5.07;;;5.40;99.90;;;;;;5093993;28;20278;-65
2023/12/31 02:57:09;;;;;;;5.53;4.90;;;5.40;99.90;;;;;;5093817;28;20465;-65
2023/12/31 02:59:34;;;;;;;5.93;4.70;;;5.40;99.90;;;;;;5094010;28;20410;-65
2023/12/31 03:02:00;;;;;;;5.23;4.10;;;5.50;99.90;;;;;;5093860;28;20478;-65
2023/12/31 03:04:26;;;;;;;4.63;4.23;;;5.50;99.90;;;;;;5093720;28;20228;-66
2023/12/31 03:06:51;;;;;;;5.07;4.17;;;5.50;99.90;;;;;;5093588;28;20199;-65
2023/12/31 03:09:18;;;;;;;5.07;3.70;;;5.60;99.90;;;;;;5093715;28;20231;-65
2023/12/31 03:11:44;;;;;;;4.87;4.47;;;5.60;99.90;;;;;;5093763;28;20493;-66
2023/12/31 03:14:10;;;;;;;6.73;4.77;;;5.60;99.90;;;;;;5093713;28;20459;-66
2023/12/31 03:16:36;;;;;;;4.90;4.50;;;5.60;99.90;;;;;;5093349;28;21124;-65
2023/12/31 03:19:02;;;;;;;5.90;5.13;;;5.50;99.90;;;;;;5093659;28;20172;-66
2023/12/31 03:21:28;;;;;;;5.80;4.90;;;5.50;99.90;;;;;;5092366;28;20840;-66
2023/12/31 03:23:53;;;;;;;5.37;4.87;;;5.50;99.90;;;;;;5093525;28;20196;-66
2023/12/31 03:26:19;;;;;;;5.43;4.90;;;5.40;99.90;;;;;;5093364;28;20179;-65
2023/12/31 03:28:45;;;;;;;5.50;5.00;;;5.40;99.90;;;;;;5093233;28;20573;-65
2023/12/31 03:31:10;;;;;;;4.73;4.23;;;5.40;99.90;;;;;;5093365;28;20183;-66
2023/12/31 03:33:36;;;;;;;5.73;4.43;;;5.40;99.90;;;;;;5092467;28;20426;-66
2023/12/31 03:36:02;;;;;;;5.30;4.37;;;5.40;99.90;;;;;;5093246;28;20176;-65
2023/12/31 03:38:28;;;;;;;4.53;4.13;;;5.40;99.90;;;;;;5092964;28;20168;-66
2023/12/31 03:40:53;;;;;;;5.90;5.00;;;5.40;99.90;;;;;;5093249;28;20961;-67
2023/12/31 03:43:19;;;;;;;4.77;4.37;;;5.40;99.90;;;;;;5093159;28;20196;-67
2023/12/31 03:45:44;;;;;;;5.83;5.10;;;5.40;99.90;;;;;;5093094;28;20180;-67
2023/12/31 03:48:10;;;;;;;4.77;4.33;;;5.40;99.90;;;;;;5092878;28;20261;-67
2023/12/31 03:50:36;;;;;;;6.30;5.20;;;5.30;99.90;;;;;;5093089;28;20185;-67
2023/12/31 03:53:02;;;;;;;4.90;4.50;;;5.30;99.90;;;;;;5093214;28;20188;-67
2023/12/31 03:55:27;;;;;;;5.93;5.33;;;5.30;99.90;;;;;;5092985;28;20822;-67
2023/12/31 03:57:53;;;;;;;5.40;4.90;;;5.30;99.90;;;;;;5092652;28;20233;-67
2023/12/31 04:00:18;;;;;;;5.40;4.10;;;5.30;99.90;;;;;;5092784;28;20172;-67
2023/12/31 04:02:44;;;;;;;6.03;4.73;;;5.30;99.90;;;;;;5092730;28;20606;-67
2023/12/31 04:05:09;;;;;;;5.13;4.50;;;5.20;99.90;;;;;;5092802;28;20176;-67
2023/12/31 04:07:35;;;;;;;8.17;4.07;;;5.20;99.90;;;;;;5092341;28;20664;-66
2023/12/31 04:10:01;;;;;;;5.47;4.60;;;5.20;99.90;;;;;;5092760;28;20169;-67
2023/12/31 04:12:26;;;;;;;6.57;5.50;;;5.20;99.90;;;;;;5092725;28;20196;-67
2023/12/31 04:14:52;;;;;;;7.20;4.63;;;5.10;99.90;;;;;;5092459;28;20430;-67
2023/12/31 04:17:18;;;;;;;6.03;4.80;;;5.10;99.90;;;;;;5092658;28;20254;-67
2023/12/31 04:19:44;;;;;;;6.60;5.40;;;5.10;99.90;;;;;;5092645;28;20170;-67
2023/12/31 04:22:09;;;;;;;5.97;4.53;;;5.10;99.90;;;;;;5092455;28;20978;-67
2023/12/31 04:24:35;;;;;;;8.33;5.10;;;5.00;99.90;;;;;;5092464;28;20661;-67
2023/12/31 04:27:00;;;;;;;6.17;4.70;;;5.00;99.90;;;;;;5092261;28;20571;-67
2023/12/31 04:29:26;;;;;;;4.83;4.37;;;5.10;99.90;;;;;;5092407;28;20203;-67
2023/12/31 04:31:51;;;;;;;5.17;4.67;;;5.00;99.90;;;;;;5092519;28;20172;-67
2023/12/31 04:34:17;;;;;;;4.93;4.50;;;5.00;99.90;;;;;;5092375;28;20598;-67
2023/12/31 04:36:43;;;;;;;5.63;5.10;;;5.00;99.90;;;;;;5091995;28;20176;-67
2023/12/31 04:39:10;;;;;;;5.90;4.40;;;5.00;99.90;;;;;;5092369;28;20175;-67
2023/12/31 04:41:35;;;;;;;3.70;3.23;;;5.00;99.90;;;;;;5092384;28;20479;-67
2023/12/31 04:44:01;;;;;;;5.40;4.57;;;4.90;99.90;;;;;;5092264;28;20963;-67
2023/12/31 04:46:26;;;;;;;4.47;4.07;;;4.90;99.90;;;;;;5091822;28;20164;-67
2023/12/31 04:48:52;;;;;;;5.20;4.60;;;4.90;99.90;;;;;;5092272;28;20203;-67
2023/12/31 04:51:24;;;;;;;4.80;4.07;;;4.90;99.90;;;;;;5090968;28;20172;-67
2023/12/31 04:53:51;;;;;;;5.43;4.93;;;4.80;99.90;;;;;;5092061;28;20176;-67
2023/12/31 04:56:24;;;;;;;5.17;4.50;;;4.80;99.90;;;;;;5091953;28;20417;-67
2023/12/31 04:58:51;;;;;;;4.33;3.93;;;4.80;99.90;;;;;;5092149;28;20493;-67
2023/12/31 05:01:17;;;;;;;3.97;3.60;;;4.80;99.90;;;;;;5092108;28;20505;-67
2023/12/31 05:03:45;;;;;;;4.63;4.10;;;4.90;99.90;;;;;;5091904;28;20453;-67
2023/12/31 05:06:12;;;;;;;6.03;3.50;;;4.90;99.90;;;;;;5092041;28;20953;-67
2023/12/31 05:08:44;;;;;;;3.80;3.40;;;4.90;99.90;;;;;;5091788;28;20989;-67
2023/12/31 05:11:11;;;;;;;4.30;2.97;;;4.90;99.90;;;;;;5091965;28;20761;-67
2023/12/31 05:13:38;;;;;;;4.40;3.97;;;4.90;99.90;;;;;;5091787;28;20958;-67
2023/12/31 05:16:04;;;;;;;4.57;3.73;;;5.00;99.90;;;;;;5091970;28;20410;-67
2023/12/31 05:18:29;;;;;;;3.70;3.40;;;5.00;99.90;;;;;;5091642;28;20483;-67
2023/12/31 05:20:55;;;;;;;5.87;3.63;;;5.00;99.90;;;;;;5091815;28;20447;-67
2023/12/31 05:23:21;;;;;;;3.90;3.27;;;5.00;99.90;;;;;;5091758;28;20195;-67
2023/12/31 05:25:47;;;;;;;4.07;3.77;;;5.00;99.90;;;;;;5090574;28;20176;-67
2023/12/31 05:28:12;;;;;;;4.50;4.10;;;5.10;99.90;;;;;;5091501;28;20192;-67
2023/12/31 05:30:41;;;;;;;4.73;4.33;;;5.10;99.90;;;;;;5091783;28;20247;-67
2023/12/31 05:33:07;;;;;;;4.17;3.50;;;5.20;99.90;;;;;;5091781;28;20192;-67
2023/12/31 05:35:32;;;;;;;3.23;2.93;;;5.20;99.90;;;;;;5091697;28;20821;-67
2023/12/31 05:37:58;;;;;;;3.60;3.30;;;5.20;99.90;;;;;;5091496;28;20422;-67
2023/12/31 05:40:23;;;;;;;4.33;3.30;;;5.20;99.90;;;;;;5091766;28;20168;-67
2023/12/31 05:42:49;;;;;;;3.80;3.50;;;5.20;99.90;;;;;;5091644;28;20187;-67
2023/12/31 05:45:14;;;;;;;6.30;4.20;;;5.20;99.90;;;;;;5091662;28;20172;-67
2023/12/31 05:47:40;;;;;;;6.70;3.20;;;5.30;99.90;;;;;;5091387;28;20228;-67
2023/12/31 05:50:05;;;;;;;3.87;3.57;;;5.20;99.90;;;;;;5091602;28;20221;-67
2023/12/31 05:52:31;;;;;;;4.03;3.20;;;5.20;99.90;;;;;;5091663;28;20180;-67
2023/12/31 05:54:57;;;;;;;3.70;3.40;;;5.20;99.90;;;;;;5091491;28;20263;-67
2023/12/31 05:57:22;;;;;;;4.27;3.37;;;5.20;99.90;;;;;;5092270;28;20180;-67
2023/12/31 05:59:48;;;;;;;4.17;3.53;;;5.20;99.90;;;;;;5095283;28;20293;-67
2023/12/31 06:02:13;;;;;;;3.80;3.37;;;5.30;99.90;;;;;;5095194;28;20161;-67
2023/12/31 06:04:38;;;;;;;8.27;5.73;;;5.30;99.90;;;;;;5095381;28;20206;-66
2023/12/31 06:07:04;;;;;;;4.60;4.20;;;5.30;99.90;;;;;;5094788;28;20270;-66
2023/12/31 06:09:30;;;;;;;4.23;3.53;;;5.30;99.90;;;;;;5094901;28;20672;-66
2023/12/31 06:11:55;;;;;;;8.40;5.40;;;5.30;99.90;;;;;;5095120;28;20164;-66
2023/12/31 06:14:21;;;;;;;3.50;3.20;;;5.30;99.90;;;;;;5094904;28;20196;-66
2023/12/31 06:16:46;;;;;;;4.70;3.33;;;5.30;99.90;;;;;;5094574;28;20171;-66
2023/12/31 06:19:12;;;;;;;4.40;4.00;;;5.30;99.90;;;;;;5094818;28;20705;-66
2023/12/31 06:21:37;;;;;;;5.30;3.33;;;5.20;99.90;;;;;;5094788;28;20544;-66
2023/12/31 06:24:03;;;;;;;3.57;3.27;;;5.20;99.90;;;;;;5094582;28;20219;-66
2023/12/31 06:26:29;;;;;;;3.70;3.40;;;5.30;99.90;;;;;;5094435;28;20250;-66
2023/12/31 06:28:54;;;;;;;3.53;3.23;;;5.30;99.90;;;;;;5094584;28;20200;-66
2023/12/31 06:31:20;;;;;;;3.60;3.13;;;5.40;99.90;;;;;;5094770;28;20186;-66
2023/12/31 06:33:45;;;;;;;5.10;3.77;;;5.40;99.90;;;;;;5094544;28;20334;-66
2023/12/31 06:36:11;;;;;;;4.07;3.33;;;5.40;99.90;;;;;;5094515;28;20171;-66
2023/12/31 06:38:36;;;;;;;5.33;4.20;;;5.40;99.90;;;;;;5093004;28;20212;-66
2023/12/31 06:41:08;;;;;;;3.80;3.13;;;5.40;99.90;;;;;;5094427;28;20172;-66
2023/12/31 06:43:38;;;;;;;2.90;2.67;;;5.40;99.90;;;;;;5094420;28;20192;-66
2023/12/31 06:46:04;;;;;;;3.43;2.87;;;5.40;99.90;;;;;;5094012;28;20414;-66
2023/12/31 06:48:30;;;;;;;6.23;4.73;;;5.40;99.90;;;;;;5092666;28;20458;-66
2023/12/31 06:50:55;;;;;;;3.23;2.93;;;5.40;99.90;;;;;;5094220;28;20422;-66
2023/12/31 06:53:21;;;;;;;5.40;4.20;;;5.40;99.90;;;;;;5094027;28;20188;-66
2023/12/31 06:55:46;;;;;;;7.13;4.43;;;5.40;99.90;;;;;;5094177;28;20177;-66
2023/12/31 06:58:13;;;;;;;3.63;2.50;;;5.50;99.90;;;;;;5093776;28;20199;-66
2023/12/31 07:00:38;;;;;;;3.00;2.70;;;5.60;99.90;;;;;;5094077;28;20540;-66
2023/12/31 07:03:04;;;;;;;2.93;2.63;;;5.60;99.90;;;;;;5093750;28;20454;-66
2023/12/31 07:05:30;;;;;;;3.00;2.70;;;5.70;99.90;;;;;;5093880;28;20604;-66
2023/12/31 07:07:55;;;;;;;2.33;2.13;;;5.80;99.90;;;;;;5093365;28;20552;-66
2023/12/31 07:10:22;;;;;;;2.23;1.87;;;5.80;99.90;;;;;;5093870;28;20224;-66
2023/12/31 07:12:47;;;;;;;3.17;2.80;;;5.90;99.90;;;;;;5093850;28;20578;-66
2023/12/31 07:15:13;;;;;;;3.60;2.47;;;5.90;99.90;;;;;;5093691;28;20413;-66
2023/12/31 07:17:38;;;;;;;2.63;2.43;;;6.00;99.90;;;;;;5093481;28;20168;-66
2023/12/31 07:20:05;;;;;;;2.63;2.20;;;6.10;99.90;;;;;;5093644;28;20187;-66
2023/12/31 07:22:31;;;;;;;3.33;2.60;;;6.20;99.90;;;;;;5093947;28;20698;-66
2023/12/31 07:24:58;;;;;;;3.50;2.23;;;6.30;99.90;;;;;;5093539;28;20517;-66
2023/12/31 07:27:23;;;;;;;4.23;2.27;;;6.40;99.90;;;;;;5093225;28;20456;-66
2023/12/31 07:29:49;;;;;;;2.90;2.67;;;6.40;99.90;;;;;;5093512;28;20442;-66
2023/12/31 07:32:14;;;;;;;3.43;2.47;;;6.50;99.90;;;;;;5093454;28;20698;-67
2023/12/31 07:34:40;;;;;;;3.30;2.13;;;6.50;99.90;;;;;;5093464;28;20665;-66
2023/12/31 07:37:05;;;;;;;2.20;2.10;;;6.60;99.90;;;;;;5093108;28;20637;-66
2023/12/31 07:39:32;;;;;;;2.20;2.00;;;6.60;99.90;;;;;;5093346;28;20184;-66
2023/12/31 07:41:58;;;;;;;2.63;2.30;;;6.70;99.90;;;;;;5092037;28;20247;-66
2023/12/31 07:44:23;;;;;;;2.47;2.27;;;6.70;99.90;;;;;;5093122;28;20457;-66
2023/12/31 07:46:49;;;;;;;3.33;2.33;;;6.70;99.90;;;;;;5092537;28;20891;-66
2023/12/31 07:49:15;;;;;;;2.80;2.33;;;6.80;99.90;;;;;;5093003;28;20212;-66
2023/12/31 07:51:41;;;;;;;2.87;2.40;;;6.80;99.90;;;;;;5093280;28;20491;-66
2023/12/31 07:54:06;;;;;;;8.57;2.30;;;6.90;99.90;;;;;;5093020;28;20231;-66
2023/12/31 07:56:32;;;;;;;3.37;1.90;;;6.90;99.90;;;;;;5092823;28;20606;-66
2023/12/31 07:58:57;;;;;;;3.13;2.40;;;6.90;99.90;;;;;;5092993;28;20175;-66
2023/12/31 08:01:23;;;;;;;3.80;2.40;;;7.00;99.90;;;;;;5092833;28;20167;-66
2023/12/31 08:03:49;;;;;;;2.80;2.47;;;7.00;99.90;;;;;;5092807;28;20934;-66
2023/12/31 08:06:14;;;;;;;2.73;2.30;;;6.90;99.90;;;;;;5092722;28;20176;-66
2023/12/31 08:08:40;;;;;;;3.33;2.83;;;6.90;99.90;;;;;;5092505;28;20457;-66
2023/12/31 08:11:05;;;;;;;2.97;2.50;;;6.90;99.90;;;;;;5092747;28;20255;-66
2023/12/31 08:13:31;;;;;;;2.77;2.47;;;6.90;99.90;;;;;;5092692;28;20192;-66
2023/12/31 08:15:57;;;;;;;3.87;3.17;;;6.90;99.90;;;;;;5092735;28;20646;-66
2023/12/31 08:18:22;;;;;;;2.63;2.43;;;6.90;99.90;;;;;;5092341;28;20172;-66
2023/12/31 08:20:48;;;;;;;3.30;2.67;;;7.00;99.90;;;;;;5092157;28;20633;-66
2023/12/31 08:23:13;;;;;;;2.80;2.57;;;7.00;99.90;;;;;;5092510;28;20191;-66
2023/12/31 08:25:39;;;;;;;3.10;2.80;;;7.10;99.90;;;;;;5092569;28;20168;-66
2023/12/31 08:28:04;;;;;;;3.30;2.50;;;7.10;99.90;;;;;;5092162;28;20209;-66
2023/12/31 08:30:30;;;;;;;2.57;2.37;;;7.20;99.90;;;;;;5092426;28;20255;-66
2023/12/31 08:32:55;;;;;;;2.53;2.10;;;7.20;99.90;;;;;;5092358;28;20586;-66
2023/12/31 08:35:26;;;;;;;3.50;1.97;;;7.30;99.90;;;;;;5092534;28;20168;-66
2023/12/31 08:37:52;;;;;;;2.50;2.10;;;7.40;99.90;;;;;;5092084;28;20160;-66
2023/12/31 08:40:19;;;;;;;2.10;1.90;;;7.40;99.90;;;;;;5092324;28;20801;-66
2023/12/31 08:42:45;;;;;;;2.20;2.00;;;7.50;99.90;;;;;;5092201;28;20414;-66
2023/12/31 08:45:11;;;;;;;3.37;2.67;;;7.60;99.90;;;;;;5091930;28;20460;-66
2023/12/31 08:47:38;;;;;;;2.90;2.10;;;7.60;99.90;;;;;;5091943;28;20206;-66
2023/12/31 08:50:08;;;;;;;3.23;2.57;;;7.70;99.90;;;;;;5092212;28;20417;-66
2023/12/31 08:52:35;;;;;;;3.60;2.67;;;7.80;99.90;;;;;;5092101;28;20451;-66
2023/12/31 08:55:01;;;;;;;3.07;2.20;;;7.80;99.90;;;;;;5092154;28;20919;-66
2023/12/31 08:57:27;;;;;;;3.40;3.10;;;7.90;99.90;;;;;;5091761;28;20464;-66
2023/12/31 08:59:52;;;;;;;3.00;2.37;;;8.00;99.90;;;;;;5092172;28;20418;-66
2023/12/31 09:02:18;;;;;;;2.87;2.53;;;8.10;99.90;;;;;;5092067;28;20165;-66
2023/12/31 09:04:43;;;;;;;2.83;2.60;;;8.30;99.90;;;;;;5091956;28;20204;-66
2023/12/31 09:07:09;;;;;;;2.77;2.50;;;8.40;99.90;;;;;;5091735;28;20171;-66
2023/12/31 09:09:34;;;;;;;3.10;2.77;;;8.50;99.90;;;;;;5091953;28;20207;-66
2023/12/31 09:12:00;;;;;;;3.07;2.83;;;8.60;99.90;;;;;;5091924;28;20213;-66
2023/12/31 09:14:25;;;;;;;2.93;2.67;;;8.70;99.90;;;;;;5091937;28;20547;-66
2023/12/31 09:16:51;;;;;;;3.43;3.13;;;8.60;99.90;;;;;;5091613;28;20240;-66
2023/12/31 09:19:16;;;;;;;4.37;3.40;;;8.80;99.90;;;;;;5091949;28;20169;-66
2023/12/31 09:21:42;;;;;;;5.40;4.70;;;9.10;99.90;;;;;;5091936;28;20696;-66
2023/12/31 09:24:07;;;;;;;4.20;3.80;;;9.30;99.90;;;;;;5091878;28;20192;-66
2023/12/31 09:26:33;;;;;;;3.87;3.50;;;9.30;99.90;;;;;;5091583;28;20190;-66
2023/12/31 09:28:58;;;;;;;4.30;3.90;;;9.00;99.90;;;;;;5091817;28;20257;-66
2023/12/31 09:31:25;;;;;;;4.60;3.27;;;8.70;99.90;;;;;;5091781;28;20196;-66
2023/12/31 09:33:51;;;;;;;4.07;3.67;;;8.50;99.90;;;;;;5095159;28;20184;-66
2023/12/31 09:36:16;;;;;;;2.70;2.50;;;8.40;99.90;;;;;;5095682;28;20417;-66
2023/12/31 09:38:42;;;;;;;2.70;2.50;;;8.30;99.90;;;;;;5095430;28;20493;-66
2023/12/31 09:41:08;;;;;;;2.50;2.30;;;8.30;99.90;;;;;;5095791;28;20229;-66
2023/12/31 09:43:34;;;;;;;2.60;2.33;;;8.40;99.90;;;;;;5095489;28;20657;-66
2023/12/31 09:46:02;;;;;;;2.90;2.60;;;8.50;99.90;;;;;;5094954;28;20196;-66
2023/12/31 09:48:29;;;;;;;2.40;2.20;;;8.60;99.90;;;;;;5095160;28;20449;-66
2023/12/31 09:50:55;;;;;;;2.70;1.80;;;8.70;99.90;;;;;;5095351;28;20414;-66
2023/12/31 09:53:22;;;;;;;2.23;2.03;;;9.10;99.90;;;;;;5095260;28;20517;-66
2023/12/31 09:55:50;;;;;;;2.00;1.90;;;9.70;99.90;;;;;;5095448;28;20413;-67
2023/12/31 09:58:17;;;;;;;2.50;2.30;;;10.30;99.90;;;;;;5095087;28;20410;-67
2023/12/31 10:00:43;;;;;;;2.20;2.10;;;10.60;99.90;;;;;;5095209;28;20911;-67
2023/12/31 10:03:10;;;;;;;5.63;5.23;;;10.80;99.90;;;;;;5095121;28;20453;-67
2023/12/31 10:05:38;;;;;;;4.83;3.17;;;11.30;99.90;;;;;;5095094;28;20660;-66
2023/12/31 10:08:05;;;;;;;4.00;2.90;;;11.80;99.90;;;;;;5094751;28;20460;-66
2023/12/31 10:10:33;;;;;;;2.80;2.50;;;11.80;99.90;;;;;;5095093;28;20437;-66
2023/12/31 10:12:58;;;;;;;4.03;3.63;;;11.50;99.90;;;;;;5094998;28;20487;-66
2023/12/31 10:15:24;;;;;;;3.10;2.90;;;11.10;99.90;;;;;;5094901;28;20414;-66
2023/12/31 10:17:51;;;;;;;4.90;3.43;;;10.60;99.90;;;;;;5094619;28;20251;-66
2023/12/31 10:20:19;;;;;;;4.03;3.73;;;10.40;99.90;;;;;;5094799;28;20251;-66
2023/12/31 10:22:45;;;;;;;3.50;3.20;;;10.10;99.90;;;;;;5094716;28;20528;-66
2023/12/31 10:25:18;;;;;;;3.53;3.23;;;9.70;99.90;;;;;;5094773;28;20448;-66
2023/12/31 10:27:47;;;;;;;3.50;2.97;;;9.40;99.90;;;;;;5094336;28;20196;-66
2023/12/31 10:30:13;;;;;;;3.73;3.33;;;9.30;99.90;;;;;;5094629;28;20793;-66
2023/12/31 10:32:38;;;;;;;5.00;3.60;;;9.20;99.90;;;;;;5094585;28;20424;-66
2023/12/31 10:35:05;;;;;;;3.80;3.50;;;9.20;99.90;;;;;;5094603;28;20907;-66
2023/12/31 10:37:30;;;;;;;3.50;3.20;;;9.20;99.90;;;;;;5094210;28;20248;-66
2023/12/31 10:39:56;;;;;;;4.40;3.17;;;9.20;99.90;;;;;;5093226;28;20446;-66
2023/12/31 10:42:22;;;;;;;3.87;3.47;;;9.20;99.90;;;;;;5094418;28;20611;-66
2023/12/31 10:44:53;;;;;;;4.10;3.73;;;9.30;99.90;;;;;;5093842;28;20440;-66
2023/12/31 10:47:22;;;;;;;3.67;3.37;;;9.30;99.90;;;;;;5093980;28;20161;-66
2023/12/31 10:49:49;;;;;;;9.90;6.20;;;9.30;99.90;;;;;;5094218;28;20517;-66
2023/12/31 10:52:16;;;;;;;4.30;3.90;;;9.40;99.90;;;;;;5094226;28;20418;-66
2023/12/31 10:54:51;;;;;;;4.70;4.10;;;9.60;99.90;;;;;;5094083;28;20453;-66
2023/12/31 10:57:17;;;;;;;4.70;4.30;;;9.60;99.90;;;;;;5093944;28;20421;-67
2023/12/31 10:59:43;;;;;;;4.57;4.17;;;9.80;99.90;;;;;;5094111;28;20794;-66
2023/12/31 11:02:20;;;;;;;5.83;4.30;;;9.90;99.90;;;;;;5093982;28;20425;-66
2023/12/31 11:04:48;;;;;;;4.17;3.87;;;10.10;99.90;;;;;;5093889;28;20230;-66
2023/12/31 11:07:20;;;;;;;4.23;3.83;;;10.50;99.90;;;;;;5093847;28;20417;-66
2023/12/31 11:09:47;;;;;;;4.80;4.00;;;10.70;99.90;;;;;;5093830;28;20422;-66
2023/12/31 11:12:14;;;;;;;3.97;3.57;;;10.70;99.90;;;;;;5093753;28;20470;-66
2023/12/31 11:14:45;;;;;;;3.93;3.63;;;10.50;99.90;;;;;;5093741;28;20950;-66
2023/12/31 11:17:39;;;;;;;6.17;5.57;;;10.40;99.90;;;;;;5093647;28;20453;-66
2023/12/31 11:20:29;;;;;;;3.77;3.47;;;10.30;99.90;;;;;;5093721;28;20410;-66
2023/12/31 11:23:27;;;;;;;3.80;3.50;;;10.00;99.90;;;;;;5093583;28;20453;-66
2023/12/31 11:25:53;;;;;;;7.83;3.77;;;9.90;99.90;;;;;;5093725;28;20855;-66
2023/12/31 11:28:19;;;;;;;3.43;3.13;;;9.90;99.90;;;;;;5093214;28;20527;-67
2023/12/31 11:30:51;;;;;;;5.60;2.57;;;9.90;99.90;;;;;;5093624;28;20203;-66
2023/12/31 11:33:27;;;;;;;3.70;3.30;;;9.90;99.90;;;;;;5093383;28;20192;-66
2023/12/31 11:35:56;;;;;;;3.00;2.70;;;10.00;99.90;;;;;;5093526;28;20412;-66
2023/12/31 11:38:21;;;;;;;5.97;3.37;;;9.90;99.90;;;;;;5093051;28;20501;-66
2023/12/31 11:40:48;;;;;;;2.70;2.50;;;9.90;99.90;;;;;;5093344;28;20494;-66
2023/12/31 11:43:19;;;;;;;2.00;1.77;;;9.80;99.90;;;;;;5093146;28;20584;-66
2023/12/31 11:45:47;;;;;;;2.57;2.37;;;9.80;99.90;;;;;;5093242;28;20399;-67
2023/12/31 11:48:25;;;;;;;2.90;2.53;;;9.60;99.90;;;;;;5092784;28;20462;-66
2023/12/31 11:50:52;;;;;;;3.60;3.00;;;9.50;99.90;;;;;;5093201;28;20489;-66
2023/12/31 11:53:22;;;;;;;3.30;2.87;;;9.20;99.90;;;;;;5093062;28;20460;-66
2023/12/31 11:55:56;;;;;;;3.30;3.00;;;8.90;99.90;;;;;;5092285;28;20483;-66
2023/12/31 11:58:21;;;;;;;2.60;2.40;;;8.60;99.90;;;;;;5092750;28;20526;-67
2023/12/31 12:00:49;;;;;;;5.07;2.30;;;8.30;99.90;;;;;;5092913;28;20915;-67
2023/12/31 12:03:16;;;;;;;2.53;2.33;;;8.20;99.90;;;;;;5108046;22;20200;-68
2023/12/31 12:05:45;;;;;;;1.90;1.70;;;8.10;99.90;;;;;;5059856;28;20436;-68
2023/12/31 12:08:11;;;;;;;2.00;1.70;;;8.00;99.90;;;;;;5070879;28;20454;-68
2023/12/31 12:10:36;;;;;;;2.00;1.83;;;7.90;99.90;;;;;;5072558;28;20411;-68
2023/12/31 12:13:03;;;;;;;2.70;2.50;;;7.80;99.90;;;;;;5072480;28;20464;-68
2023/12/31 12:15:35;;;;;;;2.00;1.80;;;7.80;99.90;;;;;;5072439;28;20185;-68
2023/12/31 12:18:02;;;;;;;2.13;2.03;;;7.80;99.90;;;;;;5071044;28;20419;-68
2023/12/31 12:20:28;;;;;;;2.00;1.60;;;7.80;99.90;;;;;;5072402;28;20502;-68
2023/12/31 12:22:55;;;;;;;2.03;1.70;;;7.70;99.90;;;;;;5072379;28;20502;-68
2023/12/31 12:25:22;;;;;;;2.63;2.00;;;7.70;99.90;;;;;;5072359;28;20208;-68
2023/12/31 12:27:48;;;;;;;2.40;2.20;;;7.60;99.90;;;;;;5072153;28;20489;-68
2023/12/31 12:30:14;;;;;;;2.57;2.20;;;7.60;99.90;;;;;;5072466;28;20452;-68
2023/12/31 12:32:45;;;;;;;3.67;2.00;;;7.60;99.90;;;;;;5072247;28;20207;-68
2023/12/31 12:35:13;;;;;;;2.20;2.00;;;7.60;99.90;;;;;;5072176;28;20446;-68
2023/12/31 12:37:38;;;;;;;2.03;1.90;;;7.60;99.90;;;;;;5072111;28;20419;-68
2023/12/31 12:40:05;;;;;;;3.13;2.43;;;7.60;99.90;;;;;;5072189;28;20776;-69
2023/12/31 12:42:33;;;;;;;4.43;1.90;;;7.60;99.90;;;;;;5072159;28;20169;-68
2023/12/31 12:44:58;;;;;;;4.20;2.20;;;7.50;99.90;;;;;;5071807;28;20450;-68
2023/12/31 12:47:24;;;;;;;4.57;1.70;;;7.50;99.90;;;;;;5072287;28;20415;-68
2023/12/31 12:49:49;;;;;;;1.83;1.73;;;7.50;99.90;;;;;;5072085;28;20176;-69
2023/12/31 12:52:15;;;;;;;2.13;1.70;;;7.50;99.90;;;;;;5072040;28;20169;-68